Time;durP1;ratioP1;P1;durP2;ratioP2;P2;SDS_P1;SDS_P2;PMS_P1;PMS_P2;Temp;Humidity;BMP_temperature;BMP_pressure;BME280_temperature;BME280_humidity;BME280_pressure;Samples;Min_cycle;Max_cycle;Signal;HPM_P1;HPM_P2
2023/08/07 00:01:59;;;;;;;1.35;0.73;;;;;;;;;;4948944;28;20081;-61
2023/08/07 00:04:25;;;;;;;0.80;0.50;;;;;;;;;;4952766;29;20499;-60
2023/08/07 00:06:51;;;;;;;0.80;0.55;;;;;;;;;;4953101;29;20055;-60
2023/08/07 00:09:17;;;;;;;0.80;0.50;;;;;;;;;;4951978;29;20510;-60
2023/08/07 00:11:43;;;;;;;2.78;2.47;;;;;;;;;;4953540;28;20073;-60
2023/08/07 00:14:09;;;;;;;0.90;0.60;;;;;;;;;;4953060;28;20027;-60
2023/08/07 00:16:35;;;;;;;0.65;0.40;;;;;;;;;;4949412;28;20054;-56
2023/08/07 00:19:02;;;;;;;0.70;0.50;;;;;;;;;;4952962;28;20031;-60
2023/08/07 00:21:28;;;;;;;0.60;0.40;;;;;;;;;;4953123;28;20027;-61
2023/08/07 00:23:54;;;;;;;0.70;0.40;;;;;;;;;;4951694;29;20034;-62
2023/08/07 00:26:21;;;;;;;1.65;0.70;;;;;;;;;;4953032;28;20019;-61
2023/08/07 00:28:47;;;;;;;0.70;0.40;;;;;;;;;;4952720;29;20129;-61
2023/08/07 00:31:13;;;;;;;0.68;0.40;;;;;;;;;;4952651;29;20036;-61
2023/08/07 00:33:39;;;;;;;0.70;0.50;;;;;;;;;;4951421;29;20024;-61
2023/08/07 00:36:05;;;;;;;0.70;0.50;;;;;;;;;;4952455;29;20032;-63
2023/08/07 00:38:31;;;;;;;1.65;0.90;;;;;;;;;;4952607;29;20024;-61
2023/08/07 00:40:59;;;;;;;0.80;0.50;;;;;;;;;;4952360;28;20042;-60
2023/08/07 00:43:25;;;;;;;0.80;0.50;;;;;;;;;;5007527;28;20025;-62
2023/08/07 00:45:51;;;;;;;0.80;0.50;;;;;;;;;;5053324;28;20031;-61
2023/08/07 00:48:17;;;;;;;0.90;0.60;;;;;;;;;;5052142;28;20021;-61
2023/08/07 00:50:45;;;;;;;0.80;0.50;;;;;;;;;;5053226;28;20025;-62
2023/08/07 00:53:11;;;;;;;0.80;0.60;;;;;;;;;;5052213;28;20388;-59
2023/08/07 00:55:37;;;;;;;2.45;1.30;;;;;;;;;;5053244;28;20017;-60
2023/08/07 00:58:03;;;;;;;0.80;0.50;;;;;;;;;;5053311;28;20378;-61
2023/08/07 01:00:30;;;;;;;1.85;0.85;;;;;;;;;;5052046;28;20103;-60
2023/08/07 01:02:57;;;;;;;0.73;0.50;;;;;;;;;;5053122;28;20051;-62
2023/08/07 01:05:25;;;;;;;0.88;0.60;;;;;;;;;;5053002;28;20022;-61
2023/08/07 01:07:54;;;;;;;0.73;0.50;;;;;;;;;;5052308;28;20029;-61
2023/08/07 01:10:22;;;;;;;0.80;0.50;;;;;;;;;;5053512;28;20017;-61
2023/08/07 01:12:53;;;;;;;0.80;0.60;;;;;;;;;;5053250;28;20037;-62
2023/08/07 01:15:25;;;;;;;0.70;0.50;;;;;;;;;;5053041;28;20033;-61
2023/08/07 01:17:52;;;;;;;0.80;0.50;;;;;;;;;;5053066;28;20039;-60
2023/08/07 01:20:19;;;;;;;0.80;0.50;;;;;;;;;;5052888;28;20385;-62
2023/08/07 01:22:45;;;;;;;1.67;0.80;;;;;;;;;;5051669;28;20025;-62
2023/08/07 01:25:11;;;;;;;0.77;0.50;;;;;;;;;;5026317;28;20065;-61
2023/08/07 01:27:37;;;;;;;2.72;1.70;;;;;;;;;;4952026;28;20613;-60
2023/08/07 01:30:09;;;;;;;1.00;0.60;;;;;;;;;;4950610;28;20073;-62
2023/08/07 01:32:55;;;;;;;0.90;0.60;;;;;;;;;;4950481;28;20034;-61
2023/08/07 01:35:25;;;;;;;1.20;0.70;;;;;;;;;;4951422;28;20031;-60
2023/08/07 01:37:52;;;;;;;1.80;1.10;;;;;;;;;;4946931;28;20380;-61
2023/08/07 01:40:18;;;;;;;2.90;1.95;;;;;;;;;;4951381;28;20430;-61
2023/08/07 01:42:45;;;;;;;2.33;1.48;;;;;;;;;;4950127;28;20067;-62
2023/08/07 01:45:11;;;;;;;1.50;1.00;;;;;;;;;;4951252;29;20023;-61
2023/08/07 01:47:36;;;;;;;2.78;1.60;;;;;;;;;;4951311;29;20451;-61
2023/08/07 01:50:03;;;;;;;2.40;1.33;;;;;;;;;;4951443;29;20016;-61
2023/08/07 01:52:28;;;;;;;1.80;1.10;;;;;;;;;;4951369;29;20102;-62
2023/08/07 01:54:54;;;;;;;1.80;1.10;;;;;;;;;;4951194;29;20069;-60
2023/08/07 01:57:20;;;;;;;1.80;1.10;;;;;;;;;;4951433;29;20031;-61
2023/08/07 01:59:46;;;;;;;4.15;2.03;;;;;;;;;;4951132;29;20061;-61
2023/08/07 02:02:12;;;;;;;2.00;1.20;;;;;;;;;;4951117;29;20027;-62
2023/08/07 02:04:38;;;;;;;3.28;1.83;;;;;;;;;;4951088;29;20509;-60
2023/08/07 02:07:05;;;;;;;6.22;3.53;;;;;;;;;;4951177;29;20031;-60
2023/08/07 02:09:31;;;;;;;12.25;7.80;;;;;;;;;;4951259;29;20042;-62
2023/08/07 02:11:56;;;;;;;9.25;5.50;;;;;;;;;;4951138;29;20027;-59
2023/08/07 02:14:22;;;;;;;11.10;6.60;;;;;;;;;;4950980;29;20088;-60
2023/08/07 02:16:48;;;;;;;9.50;5.60;;;;;;;;;;4949949;29;20165;-59
2023/08/07 02:19:14;;;;;;;9.43;5.60;;;;;;;;;;4950652;29;20035;-58
2023/08/07 02:21:40;;;;;;;8.73;5.20;;;;;;;;;;4950908;29;20422;-59
2023/08/07 02:24:06;;;;;;;8.52;5.10;;;;;;;;;;4945299;29;20037;-59
2023/08/07 02:26:32;;;;;;;7.40;4.40;;;;;;;;;;4948137;28;20028;-57
2023/08/07 02:28:58;;;;;;;8.00;4.78;;;;;;;;;;4950503;29;20432;-59
2023/08/07 02:31:24;;;;;;;7.65;4.50;;;;;;;;;;4950652;29;20042;-59
2023/08/07 02:33:50;;;;;;;7.90;4.70;;;;;;;;;;4950860;29;20031;-58
2023/08/07 02:36:16;;;;;;;8.80;5.22;;;;;;;;;;4950542;29;20028;-60
2023/08/07 02:38:42;;;;;;;8.18;5.00;;;;;;;;;;4950385;28;20097;-59
2023/08/07 02:41:08;;;;;;;8.10;4.97;;;;;;;;;;4950514;29;20055;-61
2023/08/07 02:43:34;;;;;;;7.78;4.60;;;;;;;;;;4950510;29;20093;-61
2023/08/07 02:46:00;;;;;;;7.90;4.70;;;;;;;;;;4949130;29;20042;-60
2023/08/07 02:48:26;;;;;;;7.43;4.40;;;;;;;;;;4949372;29;20073;-60
2023/08/07 02:50:53;;;;;;;7.90;4.70;;;;;;;;;;4950549;29;20027;-60
2023/08/07 02:53:19;;;;;;;7.45;4.50;;;;;;;;;;4950485;28;20031;-58
2023/08/07 02:55:45;;;;;;;7.50;4.50;;;;;;;;;;4950298;29;20093;-61
2023/08/07 02:58:11;;;;;;;7.63;4.55;;;;;;;;;;4949509;29;20023;-60
2023/08/07 03:00:37;;;;;;;8.15;4.90;;;;;;;;;;4950620;29;20521;-60
2023/08/07 03:03:03;;;;;;;7.88;4.70;;;;;;;;;;4950341;29;20149;-61
2023/08/07 03:05:30;;;;;;;12.45;7.40;;;;;;;;;;4950013;29;20102;-58
2023/08/07 03:07:56;;;;;;;9.80;5.78;;;;;;;;;;4949112;29;20491;-57
2023/08/07 03:10:21;;;;;;;10.50;6.20;;;;;;;;;;4948809;29;20065;-56
2023/08/07 03:12:47;;;;;;;11.95;7.70;;;;;;;;;;4948962;29;20027;-57
2023/08/07 03:15:14;;;;;;;10.70;6.35;;;;;;;;;;4949999;29;20034;-57
2023/08/07 03:17:39;;;;;;;10.77;6.32;;;;;;;;;;4950647;29;20361;-60
2023/08/07 03:20:06;;;;;;;9.27;5.55;;;;;;;;;;4952046;29;20081;-60
2023/08/07 03:22:32;;;;;;;10.82;6.43;;;;;;;;;;4951017;28;20030;-60
2023/08/07 03:24:58;;;;;;;10.00;5.90;;;;;;;;;;4949113;29;20122;-57
2023/08/07 03:27:24;;;;;;;10.10;6.00;;;;;;;;;;4949223;29;20073;-60
2023/08/07 03:29:50;;;;;;;9.85;5.88;;;;;;;;;;4950004;29;20035;-61
2023/08/07 03:32:16;;;;;;;9.65;5.78;;;;;;;;;;4953241;29;20120;-56
2023/08/07 03:34:42;;;;;;;9.82;5.93;;;;;;;;;;4953110;29;20034;-60
2023/08/07 03:37:08;;;;;;;9.00;5.40;;;;;;;;;;4953592;29;20601;-59
2023/08/07 03:39:34;;;;;;;8.80;5.30;;;;;;;;;;4953217;28;20518;-60
2023/08/07 03:42:00;;;;;;;8.93;5.38;;;;;;;;;;4953181;29;20059;-56
2023/08/07 03:44:26;;;;;;;10.45;6.20;;;;;;;;;;4953159;29;20044;-58
2023/08/07 03:46:52;;;;;;;9.43;5.65;;;;;;;;;;4953107;29;20469;-60
2023/08/07 03:49:18;;;;;;;8.30;4.97;;;;;;;;;;4952954;29;20068;-58
2023/08/07 03:51:44;;;;;;;8.77;5.28;;;;;;;;;;4952247;29;20411;-58
2023/08/07 03:54:10;;;;;;;10.77;6.40;;;;;;;;;;4952993;29;20034;-59
2023/08/07 03:56:37;;;;;;;9.10;5.35;;;;;;;;;;4952943;29;20509;-59
2023/08/07 03:59:03;;;;;;;12.05;7.13;;;;;;;;;;4952914;28;20487;-59
2023/08/07 04:01:30;;;;;;;12.18;7.20;;;;;;;;;;4952864;29;20041;-58
2023/08/07 04:03:55;;;;;;;11.07;6.53;;;;;;;;;;4951739;29;20036;-59
2023/08/07 04:06:21;;;;;;;12.50;7.40;;;;;;;;;;4952825;29;20038;-60
2023/08/07 04:08:48;;;;;;;10.90;6.40;;;;;;;;;;4952759;29;20108;-60
2023/08/07 04:11:14;;;;;;;9.80;5.80;;;;;;;;;;4952614;29;20103;-61
2023/08/07 04:13:40;;;;;;;10.00;5.97;;;;;;;;;;4952781;29;20031;-61
2023/08/07 04:16:06;;;;;;;9.82;5.82;;;;;;;;;;4952508;29;20027;-60
2023/08/07 04:18:33;;;;;;;9.10;5.45;;;;;;;;;;4951213;29;20499;-59
2023/08/07 04:20:59;;;;;;;10.38;6.10;;;;;;;;;;4952429;29;20031;-61
2023/08/07 04:23:25;;;;;;;9.10;5.40;;;;;;;;;;4952524;29;20035;-59
2023/08/07 04:25:51;;;;;;;9.50;5.60;;;;;;;;;;4952145;29;20031;-61
2023/08/07 04:28:18;;;;;;;8.93;5.30;;;;;;;;;;4952388;29;20027;-59
2023/08/07 04:30:44;;;;;;;9.00;5.40;;;;;;;;;;4951860;29;20034;-59
2023/08/07 04:33:10;;;;;;;9.05;5.35;;;;;;;;;;4952437;29;20027;-61
2023/08/07 04:35:36;;;;;;;8.98;5.53;;;;;;;;;;4952194;29;20024;-60
2023/08/07 04:38:03;;;;;;;9.13;5.53;;;;;;;;;;4951214;29;20027;-60
2023/08/07 04:40:29;;;;;;;8.60;5.10;;;;;;;;;;4952020;28;20035;-61
2023/08/07 04:42:55;;;;;;;9.00;5.35;;;;;;;;;;4950993;28;20031;-61
2023/08/07 04:45:21;;;;;;;8.10;4.80;;;;;;;;;;4951732;29;20172;-60
2023/08/07 04:47:47;;;;;;;9.02;5.32;;;;;;;;;;4952315;28;20497;-60
2023/08/07 04:50:13;;;;;;;8.18;5.05;;;;;;;;;;4952028;28;20345;-61
2023/08/07 04:52:39;;;;;;;8.18;4.90;;;;;;;;;;4952271;28;20055;-61
2023/08/07 04:55:06;;;;;;;7.50;4.50;;;;;;;;;;4952332;28;20032;-60
2023/08/07 04:57:32;;;;;;;7.35;4.32;;;;;;;;;;4951432;28;20384;-61
2023/08/07 04:59:58;;;;;;;7.82;4.82;;;;;;;;;;4951984;29;20070;-58
2023/08/07 05:02:24;;;;;;;7.25;4.30;;;;;;;;;;4950620;28;20055;-60
2023/08/07 05:04:50;;;;;;;6.80;4.10;;;;;;;;;;4951439;28;20114;-61
2023/08/07 05:07:16;;;;;;;7.30;4.45;;;;;;;;;;4952008;28;20026;-60
2023/08/07 05:09:42;;;;;;;6.70;4.00;;;;;;;;;;4952041;29;20019;-60
2023/08/07 05:12:08;;;;;;;6.90;4.00;;;;;;;;;;4950361;28;20400;-60
2023/08/07 05:14:34;;;;;;;7.50;4.47;;;;;;;;;;4951288;29;20031;-59
2023/08/07 05:17:00;;;;;;;7.07;4.20;;;;;;;;;;4950386;29;20344;-59
2023/08/07 05:19:26;;;;;;;7.65;4.55;;;;;;;;;;4951752;28;20027;-59
2023/08/07 05:21:52;;;;;;;8.15;4.85;;;;;;;;;;4951306;28;20031;-57
2023/08/07 05:24:18;;;;;;;8.35;5.00;;;;;;;;;;4951205;28;20036;-58
2023/08/07 05:26:44;;;;;;;8.10;4.90;;;;;;;;;;4950159;28;20035;-58
2023/08/07 05:29:10;;;;;;;9.40;5.57;;;;;;;;;;4951707;28;20106;-57
2023/08/07 05:31:37;;;;;;;9.60;5.70;;;;;;;;;;4951659;28;20078;-58
2023/08/07 05:34:03;;;;;;;9.20;5.50;;;;;;;;;;4950163;28;20035;-61
2023/08/07 05:36:31;;;;;;;8.95;5.32;;;;;;;;;;4951425;28;20027;-61
2023/08/07 05:41:28;;;;;;;8.73;5.13;;;;;;;;;;4986278;23;20074;-51
2023/08/07 05:43:54;;;;;;;8.80;5.25;;;;;;;;;;4968402;28;20070;-59
2023/08/07 05:46:20;;;;;;;8.80;5.20;;;;;;;;;;4969946;28;20051;-61
2023/08/07 05:48:46;;;;;;;8.52;5.10;;;;;;;;;;4969953;28;20037;-62
2023/08/07 05:51:12;;;;;;;8.20;4.90;;;;;;;;;;4969400;28;20050;-59
2023/08/07 05:53:38;;;;;;;6.80;4.10;;;;;;;;;;4952088;28;20038;-57
2023/08/07 05:56:04;;;;;;;7.43;4.50;;;;;;;;;;4952416;28;20451;-62
2023/08/07 05:58:30;;;;;;;7.70;4.60;;;;;;;;;;4951820;28;20058;-58
2023/08/07 06:00:56;;;;;;;7.40;4.40;;;;;;;;;;4963031;28;20046;-64
2023/08/07 06:03:23;;;;;;;7.18;4.43;;;;;;;;;;4971618;28;20026;-62
2023/08/07 06:05:49;;;;;;;6.88;4.10;;;;;;;;;;4971520;28;20035;-59
2023/08/07 06:08:15;;;;;;;6.43;3.83;;;;;;;;;;4971776;28;20045;-62
2023/08/07 06:10:41;;;;;;;6.25;3.70;;;;;;;;;;4972629;28;20067;-63
2023/08/07 06:13:08;;;;;;;6.90;4.10;;;;;;;;;;4971225;28;20027;-62
2023/08/07 06:15:34;;;;;;;4.82;2.90;;;;;;;;;;4971042;28;20027;-62
2023/08/07 06:18:00;;;;;;;4.80;2.80;;;;;;;;;;4959948;28;20089;-60
2023/08/07 06:20:26;;;;;;;4.70;2.80;;;;;;;;;;4952749;28;20438;-61
2023/08/07 06:22:52;;;;;;;5.25;3.15;;;;;;;;;;4953103;28;20035;-60
2023/08/07 06:25:19;;;;;;;6.10;3.70;;;;;;;;;;4951493;28;20472;-56
2023/08/07 06:27:45;;;;;;;6.10;3.60;;;;;;;;;;4960045;28;20018;-61
2023/08/07 06:30:11;;;;;;;5.38;3.17;;;;;;;;;;4972541;28;20106;-61
2023/08/07 06:32:37;;;;;;;5.65;3.40;;;;;;;;;;4971948;28;20078;-60
2023/08/07 06:35:04;;;;;;;5.45;3.20;;;;;;;;;;4971241;28;20062;-63
2023/08/07 06:37:30;;;;;;;6.13;4.47;;;;;;;;;;4971205;28;20109;-62
2023/08/07 06:39:56;;;;;;;5.20;3.10;;;;;;;;;;4971689;28;20043;-61
2023/08/07 06:42:22;;;;;;;4.90;2.90;;;;;;;;;;4972058;28;20445;-57
2023/08/07 06:44:48;;;;;;;4.85;2.80;;;;;;;;;;5034343;28;20082;-58
2023/08/07 06:47:14;;;;;;;4.80;2.80;;;;;;;;;;5051299;28;20116;-62
2023/08/07 06:49:40;;;;;;;4.50;2.70;;;;;;;;;;5052378;28;20072;-62
2023/08/07 06:52:06;;;;;;;6.13;3.80;;;;;;;;;;5054837;28;20473;-61
2023/08/07 06:54:32;;;;;;;6.25;4.05;;;;;;;;;;5054338;28;20056;-61
2023/08/07 06:56:58;;;;;;;6.13;3.70;;;;;;;;;;5054960;28;20033;-60
2023/08/07 06:59:24;;;;;;;5.60;3.30;;;;;;;;;;5054604;28;20500;-60
2023/08/07 07:01:50;;;;;;;5.30;3.08;;;;;;;;;;5054958;28;20052;-59
2023/08/07 07:04:16;;;;;;;4.30;2.55;;;;;;;;;;5055359;28;20040;-60
2023/08/07 07:06:42;;;;;;;4.53;2.70;;;;;;;;;;5057879;28;20489;-61
2023/08/07 07:09:08;;;;;;;4.72;2.78;;;;;;;;;;5056557;28;20021;-60
2023/08/07 07:11:35;;;;;;;5.57;3.50;;;;;;;;;;5060201;28;20021;-62
2023/08/07 07:14:01;;;;;;;4.30;2.60;;;;;;;;;;5058194;28;20112;-62
2023/08/07 07:16:27;;;;;;;5.10;2.90;;;;;;;;;;5059160;28;20044;-62
2023/08/07 07:18:56;;;;;;;4.65;2.80;;;;;;;;;;4998004;28;20046;-62
2023/08/07 07:21:22;;;;;;;3.80;2.25;;;;;;;;;;4976001;28;20497;-63
2023/08/07 07:23:48;;;;;;;4.43;2.70;;;;;;;;;;4974346;28;20110;-62
2023/08/07 07:26:14;;;;;;;3.83;2.33;;;;;;;;;;4975152;28;20094;-62
2023/08/07 07:28:40;;;;;;;2.90;1.80;;;;;;;;;;4974709;28;20084;-60
2023/08/07 07:31:08;;;;;;;3.55;2.20;;;;;;;;;;4971045;28;20019;-57
2023/08/07 07:33:36;;;;;;;3.28;2.00;;;;;;;;;;4966749;28;20023;-57
2023/08/07 07:36:02;;;;;;;2.70;1.60;;;;;;;;;;4953087;28;20081;-54
2023/08/07 07:38:28;;;;;;;2.85;1.70;;;;;;;;;;4951635;28;20024;-55
2023/08/07 07:40:56;;;;;;;2.60;1.60;;;;;;;;;;4952469;28;20445;-54
2023/08/07 07:43:23;;;;;;;3.80;2.22;;;;;;;;;;4952720;28;20583;-54
2023/08/07 07:45:49;;;;;;;4.22;2.45;;;;;;;;;;4952598;28;20364;-56
2023/08/07 07:48:15;;;;;;;3.50;2.10;;;;;;;;;;4951400;28;20406;-53
2023/08/07 07:50:41;;;;;;;3.80;2.25;;;;;;;;;;4952482;28;20027;-51
2023/08/07 07:53:07;;;;;;;3.40;2.08;;;;;;;;;;4953196;28;20039;-53
2023/08/07 07:55:34;;;;;;;5.90;3.50;;;;;;;;;;4953221;28;20036;-52
2023/08/07 07:58:00;;;;;;;6.55;3.85;;;;;;;;;;4962561;28;20025;-56
2023/08/07 08:00:26;;;;;;;11.85;7.00;;;;;;;;;;4948779;28;20089;-52
2023/08/07 08:02:53;;;;;;;13.57;8.88;;;;;;;;;;4959320;28;20093;-53
2023/08/07 08:05:19;;;;;;;13.73;9.25;;;;;;;;;;4957543;28;20031;-55
2023/08/07 08:07:45;;;;;;;14.45;11.38;;;;;;;;;;4952136;28;20030;-53
2023/08/07 08:10:13;;;;;;;14.90;12.90;;;;;;;;;;4952715;28;20024;-56
2023/08/07 08:12:39;;;;;;;14.60;11.50;;;;;;;;;;4953193;28;20028;-52
2023/08/07 08:15:05;;;;;;;15.43;13.27;;;;;;;;;;4952223;28;20034;-55
2023/08/07 08:17:31;;;;;;;14.60;11.85;;;;;;;;;;4958516;28;20033;-51
2023/08/07 08:19:57;;;;;;;14.60;11.75;;;;;;;;;;4960072;28;20476;-51
2023/08/07 08:22:24;;;;;;;14.60;11.15;;;;;;;;;;4954395;28;20047;-50
2023/08/07 08:24:50;;;;;;;14.20;10.48;;;;;;;;;;4948691;28;20031;-54
2023/08/07 08:27:17;;;;;;;13.95;9.90;;;;;;;;;;4945630;28;20091;-52
2023/08/07 08:29:44;;;;;;;14.20;10.50;;;;;;;;;;4951108;28;20471;-51
2023/08/07 08:32:10;;;;;;;14.23;10.38;;;;;;;;;;4952735;28;20035;-54
2023/08/07 08:34:36;;;;;;;14.30;11.00;;;;;;;;;;4952344;28;20376;-51
2023/08/07 08:37:05;;;;;;;14.30;10.68;;;;;;;;;;4961347;28;20034;-50
2023/08/07 08:39:31;;;;;;;13.77;9.48;;;;;;;;;;4968270;28;20042;-53
2023/08/07 08:41:58;;;;;;;13.95;9.80;;;;;;;;;;4969904;28;20088;-51
2023/08/07 08:44:24;;;;;;;16.00;14.30;;;;;;;;;;4964155;28;20031;-52
2023/08/07 08:46:53;;;;;;;14.30;10.82;;;;;;;;;;4952666;28;20027;-50
2023/08/07 08:49:19;;;;;;;;;;;;;;;;;;4953390;28;20146;-55
2023/08/07 08:51:45;;;;;;;13.50;8.35;;;;;;;;;;4952349;28;19942;-55
2023/08/07 08:54:11;;;;;;;18.63;9.30;;;;;;;;;;4952717;28;20546;-56
2023/08/07 08:56:37;;;;;;;12.63;7.43;;;;;;;;;;4954781;28;20117;-50
2023/08/07 08:59:03;;;;;;;12.30;7.82;;;;;;;;;;4952174;28;20051;-54
2023/08/07 09:01:30;;;;;;;10.43;6.13;;;;;;;;;;4950532;28;20059;-55
2023/08/07 09:03:56;;;;;;;11.15;6.55;;;;;;;;;;4948565;28;20027;-49
2023/08/07 09:06:22;;;;;;;11.13;6.57;;;;;;;;;;4952313;28;20054;-52
2023/08/07 09:08:50;;;;;;;10.70;6.32;;;;;;;;;;4951985;28;20019;-52
2023/08/07 09:11:17;;;;;;;11.40;6.68;;;;;;;;;;4952264;28;20531;-52
2023/08/07 09:13:43;;;;;;;11.27;6.63;;;;;;;;;;4950539;28;20483;-52
2023/08/07 09:16:11;;;;;;;11.98;7.10;;;;;;;;;;4962154;28;20043;-51
2023/08/07 09:18:37;;;;;;;11.63;6.90;;;;;;;;;;4965916;28;20686;-49
2023/08/07 09:21:03;;;;;;;11.20;6.88;;;;;;;;;;4963297;28;20109;-54
2023/08/07 09:23:29;;;;;;;12.30;7.28;;;;;;;;;;4956529;28;20062;-53
2023/08/07 09:26:02;;;;;;;11.63;6.90;;;;;;;;;;4959124;28;20146;-50
2023/08/07 09:28:32;;;;;;;10.93;6.40;;;;;;;;;;4963243;28;20463;-54
2023/08/07 09:30:58;;;;;;;10.10;6.00;;;;;;;;;;4951655;28;20027;-53
2023/08/07 09:33:25;;;;;;;9.98;5.88;;;;;;;;;;4959839;28;20058;-52
2023/08/07 09:35:51;;;;;;;7.10;4.22;;;;;;;;;;4952064;28;20050;-53
2023/08/07 09:38:18;;;;;;;6.47;3.83;;;;;;;;;;4950995;28;20023;-54
2023/08/07 09:40:44;;;;;;;6.07;3.60;;;;;;;;;;4951208;28;20035;-50
2023/08/07 09:43:10;;;;;;;7.15;4.72;;;;;;;;;;4951612;28;20035;-51
2023/08/07 09:45:36;;;;;;;5.93;3.47;;;;;;;;;;4951030;28;20530;-52
2023/08/07 09:48:02;;;;;;;5.85;3.50;;;;;;;;;;4949995;28;20046;-50
2023/08/07 09:50:29;;;;;;;5.68;3.40;;;;;;;;;;4950893;28;20145;-50
2023/08/07 09:52:55;;;;;;;4.10;2.45;;;;;;;;;;4950057;28;20426;-53
2023/08/07 09:55:22;;;;;;;4.35;2.60;;;;;;;;;;4951090;28;20019;-51
2023/08/07 09:57:48;;;;;;;4.50;2.70;;;;;;;;;;4951200;28;20657;-52
2023/08/07 10:00:15;;;;;;;6.85;4.10;;;;;;;;;;4950781;28;20028;-55
2023/08/07 10:02:44;;;;;;;6.50;4.00;;;;;;;;;;4950522;28;20106;-50
2023/08/07 10:05:10;;;;;;;5.90;3.50;;;;;;;;;;4949927;28;20131;-53
2023/08/07 10:07:40;;;;;;;16.65;6.40;;;;;;;;;;4950512;28;20039;-51
2023/08/07 10:10:07;;;;;;;15.73;4.90;;;;;;;;;;4950669;28;20403;-50
2023/08/07 10:12:33;;;;;;;15.57;5.55;;;;;;;;;;4949095;28;20081;-56
2023/08/07 10:14:59;;;;;;;20.80;6.00;;;;;;;;;;4949051;28;20070;-53
2023/08/07 10:17:25;;;;;;;17.00;4.95;;;;;;;;;;4950236;28;20037;-54
2023/08/07 10:19:52;;;;;;;16.20;6.13;;;;;;;;;;4953178;28;20043;-53
2023/08/07 10:22:21;;;;;;;15.88;5.47;;;;;;;;;;4953931;28;20526;-53
2023/08/07 10:24:48;;;;;;;16.48;5.70;;;;;;;;;;4943302;28;20065;-53
2023/08/07 10:27:17;;;;;;;17.10;5.20;;;;;;;;;;4960034;28;20039;-52
2023/08/07 10:29:44;;;;;;;17.45;5.47;;;;;;;;;;4959326;28;20805;-53
2023/08/07 10:32:10;;;;;;;19.30;6.20;;;;;;;;;;4960219;28;20042;-54
2023/08/07 10:34:40;;;;;;;19.83;6.35;;;;;;;;;;4959980;28;20038;-54
2023/08/07 10:37:09;;;;;;;18.15;5.93;;;;;;;;;;4959168;28;20063;-54
2023/08/07 10:39:37;;;;;;;17.10;6.60;;;;;;;;;;4958109;28;20100;-56
2023/08/07 10:42:04;;;;;;;20.55;7.57;;;;;;;;;;4969668;28;20037;-54
2023/08/07 10:44:32;;;;;;;17.33;6.32;;;;;;;;;;4949876;28;20031;-56
2023/08/07 10:46:58;;;;;;;16.83;6.50;;;;;;;;;;4949251;28;20019;-52
2023/08/07 10:49:50;;;;;;;14.10;5.60;;;;;;;;;;4950183;28;20275;-56
2023/08/07 10:52:16;;;;;;;14.73;5.05;;;;;;;;;;4948395;28;20368;-58
2023/08/07 10:54:46;;;;;;;17.95;5.35;;;;;;;;;;4950187;28;20050;-57
2023/08/07 10:57:16;;;;;;;15.70;5.07;;;;;;;;;;4958026;28;20053;-54
2023/08/07 10:59:52;;;;;;;14.95;5.03;;;;;;;;;;4957660;28;20081;-52
2023/08/07 11:02:30;;;;;;;16.85;5.72;;;;;;;;;;4958742;28;20391;-53
2023/08/07 11:04:56;;;;;;;16.05;6.25;;;;;;;;;;4962498;28;20232;-53
2023/08/07 11:07:30;;;;;;;18.52;6.10;;;;;;;;;;4967577;28;20053;-51
2023/08/07 11:09:57;;;;;;;15.73;5.50;;;;;;;;;;4963173;28;20023;-52
2023/08/07 11:12:26;;;;;;;18.77;6.57;;;;;;;;;;4958883;28;20070;-49
2023/08/07 11:14:56;;;;;;;17.58;6.15;;;;;;;;;;4959693;28;20429;-51
2023/08/07 11:17:24;;;;;;;15.80;7.00;;;;;;;;;;4958602;28;20030;-54
2023/08/07 11:19:50;;;;;;;16.17;6.90;;;;;;;;;;4955667;28;20440;-53
2023/08/07 11:22:16;;;;;;;15.63;7.20;;;;;;;;;;4949368;28;20066;-55
2023/08/07 11:24:42;;;;;;;21.90;7.10;;;;;;;;;;4950600;28;20027;-54
2023/08/07 11:27:08;;;;;;;14.98;6.53;;;;;;;;;;4960707;28;20501;-54
2023/08/07 11:29:34;;;;;;;17.30;7.13;;;;;;;;;;4967426;28;20075;-51
2023/08/07 11:32:00;;;;;;;19.90;7.00;;;;;;;;;;4958152;28;20027;-57
2023/08/07 11:34:26;;;;;;;19.83;7.70;;;;;;;;;;4958971;28;20038;-51
2023/08/07 11:36:55;;;;;;;17.58;6.93;;;;;;;;;;4965807;28;20511;-54
2023/08/07 11:39:21;;;;;;;22.45;7.68;;;;;;;;;;4968849;28;20096;-52
2023/08/07 11:41:47;;;;;;;16.70;6.88;;;;;;;;;;4982676;22;20042;-59
2023/08/07 11:44:13;;;;;;;17.65;7.13;;;;;;;;;;4968489;28;20029;-59
2023/08/07 11:46:40;;;;;;;19.60;8.15;;;;;;;;;;4969246;28;20110;-59
2023/08/07 11:49:07;;;;;;;18.58;7.40;;;;;;;;;;4968910;28;20029;-60
2023/08/07 11:51:33;;;;;;;15.88;8.07;;;;;;;;;;4970155;28;20451;-60
2023/08/07 11:53:59;;;;;;;15.55;8.30;;;;;;;;;;4972191;28;20031;-60
2023/08/07 11:56:26;;;;;;;17.40;8.43;;;;;;;;;;4972255;28;20510;-59
2023/08/07 11:58:53;;;;;;;18.27;8.25;;;;;;;;;;4972261;28;20056;-59
2023/08/07 12:01:20;;;;;;;15.05;8.02;;;;;;;;;;4972518;28;20072;-60
2023/08/07 12:03:56;;;;;;;17.52;8.90;;;;;;;;;;4972527;28;20506;-56
2023/08/07 12:06:23;;;;;;;17.55;8.70;;;;;;;;;;4972374;28;20048;-54
2023/08/07 12:08:51;;;;;;;14.98;8.05;;;;;;;;;;4972722;28;20019;-59
2023/08/07 12:11:17;;;;;;;18.15;8.90;;;;;;;;;;4971160;28;20023;-57
2023/08/07 12:13:44;;;;;;;17.10;8.35;;;;;;;;;;4972326;28;20026;-59
2023/08/07 12:16:15;;;;;;;15.88;7.95;;;;;;;;;;4972074;28;20042;-58
2023/08/07 12:18:51;;;;;;;15.75;8.63;;;;;;;;;;4972330;28;20483;-59
2023/08/07 12:21:23;;;;;;;17.20;8.90;;;;;;;;;;4971952;28;20530;-58
2023/08/07 12:23:50;;;;;;;18.35;8.48;;;;;;;;;;4966762;28;20406;-52
2023/08/07 12:26:16;;;;;;;16.83;8.30;;;;;;;;;;4952667;28;20165;-58
2023/08/07 12:28:42;;;;;;;15.65;8.20;;;;;;;;;;4951951;28;20051;-59
2023/08/07 12:31:08;;;;;;;19.70;9.07;;;;;;;;;;4951402;28;20030;-59
2023/08/07 12:33:34;;;;;;;17.85;9.55;;;;;;;;;;4952335;28;20027;-54
2023/08/07 12:36:01;;;;;;;17.73;9.07;;;;;;;;;;4950860;28;20054;-61
2023/08/07 12:38:27;;;;;;;18.58;9.13;;;;;;;;;;4950777;28;20031;-57
2023/08/07 12:40:54;;;;;;;16.83;8.43;;;;;;;;;;4952018;28;20066;-53
2023/08/07 12:43:20;;;;;;;20.77;8.48;;;;;;;;;;4952071;28;20093;-57
2023/08/07 12:45:46;;;;;;;17.33;9.48;;;;;;;;;;4969921;28;20019;-57
2023/08/07 12:48:12;;;;;;;19.80;9.85;;;;;;;;;;4971966;28;20027;-55
2023/08/07 12:50:39;;;;;;;19.70;9.77;;;;;;;;;;4971732;28;20026;-60
2023/08/07 12:53:06;;;;;;;18.27;9.60;;;;;;;;;;4971888;28;20596;-56
2023/08/07 12:55:32;;;;;;;16.73;8.85;;;;;;;;;;4971632;28;20347;-59
2023/08/07 12:57:58;;;;;;;22.60;10.43;;;;;;;;;;4971252;28;20105;-54
2023/08/07 13:00:25;;;;;;;15.35;9.35;;;;;;;;;;4971316;28;20034;-58
2023/08/07 13:02:51;;;;;;;17.58;9.70;;;;;;;;;;4971637;28;20026;-58
2023/08/07 13:05:18;;;;;;;18.73;9.93;;;;;;;;;;4970287;28;20054;-57
2023/08/07 13:07:45;;;;;;;16.98;9.50;;;;;;;;;;4970031;28;20113;-56
2023/08/07 13:10:12;;;;;;;16.17;8.88;;;;;;;;;;4971335;28;20027;-58
2023/08/07 13:12:42;;;;;;;17.60;9.27;;;;;;;;;;4971315;28;20376;-60
2023/08/07 13:15:09;;;;;;;17.73;10.05;;;;;;;;;;4971149;28;20026;-55
2023/08/07 13:17:35;;;;;;;15.88;10.10;;;;;;;;;;4969691;28;20054;-58
2023/08/07 13:20:04;;;;;;;16.30;9.77;;;;;;;;;;4969766;28;20561;-57
2023/08/07 13:22:30;;;;;;;17.15;9.27;;;;;;;;;;4971039;28;20019;-58
2023/08/07 13:24:56;;;;;;;17.38;9.38;;;;;;;;;;4970769;28;20037;-55
2023/08/07 13:27:22;;;;;;;17.70;9.82;;;;;;;;;;4970562;28;20023;-55
2023/08/07 13:29:48;;;;;;;16.50;9.90;;;;;;;;;;4970667;28;20043;-54
2023/08/07 13:32:14;;;;;;;18.42;10.35;;;;;;;;;;4971054;28;20173;-56
2023/08/07 13:34:40;;;;;;;15.68;9.30;;;;;;;;;;4970515;28;20113;-58
2023/08/07 13:37:07;;;;;;;17.70;9.68;;;;;;;;;;4970962;28;20023;-55
2023/08/07 13:39:33;;;;;;;19.60;11.10;;;;;;;;;;4970703;28;20045;-57
2023/08/07 13:42:02;;;;;;;17.10;10.30;;;;;;;;;;4970519;28;20134;-58
2023/08/07 13:44:28;;;;;;;17.25;9.93;;;;;;;;;;4969942;28;20109;-57
2023/08/07 13:46:55;;;;;;;18.23;9.75;;;;;;;;;;4970670;28;20023;-53
2023/08/07 13:49:23;;;;;;;17.42;10.60;;;;;;;;;;4970361;28;20118;-57
2023/08/07 13:51:49;;;;;;;15.80;9.95;;;;;;;;;;4969336;28;20034;-59
2023/08/07 13:54:15;;;;;;;17.35;9.48;;;;;;;;;;4970323;28;20297;-58
2023/08/07 13:56:41;;;;;;;17.05;9.52;;;;;;;;;;4970562;28;20034;-57
2023/08/07 13:59:07;;;;;;;18.77;10.02;;;;;;;;;;4969337;28;20485;-58
2023/08/07 14:01:35;;;;;;;15.98;10.05;;;;;;;;;;4969285;28;20398;-57
2023/08/07 14:04:01;;;;;;;17.05;10.40;;;;;;;;;;4970566;28;20103;-56
2023/08/07 14:06:27;;;;;;;16.70;9.93;;;;;;;;;;4970655;28;20103;-59
2023/08/07 14:08:53;;;;;;;16.63;9.68;;;;;;;;;;4970225;28;20100;-56
2023/08/07 14:11:20;;;;;;;18.10;10.07;;;;;;;;;;4969846;28;20043;-57
2023/08/07 14:13:47;;;;;;;18.75;10.50;;;;;;;;;;4969715;28;20387;-58
2023/08/07 14:16:13;;;;;;;16.75;9.85;;;;;;;;;;4969988;28;20469;-60
2023/08/07 14:18:39;;;;;;;16.13;10.00;;;;;;;;;;4969897;28;20027;-60
2023/08/07 14:21:05;;;;;;;15.85;9.93;;;;;;;;;;4969209;28;20105;-60
2023/08/07 14:23:31;;;;;;;17.00;10.43;;;;;;;;;;4969446;28;20377;-58
2023/08/07 14:25:57;;;;;;;16.50;9.95;;;;;;;;;;4968937;28;20143;-58
2023/08/07 14:28:23;;;;;;;15.60;10.30;;;;;;;;;;4968264;28;20096;-56
2023/08/07 14:30:49;;;;;;;17.52;11.18;;;;;;;;;;4969767;28;20022;-59
2023/08/07 14:33:16;;;;;;;16.05;10.00;;;;;;;;;;4969731;28;20070;-59
2023/08/07 14:35:43;;;;;;;17.90;11.18;;;;;;;;;;4969137;28;20027;-59